sensor_id;sensor_type;location;lat;lon;timestamp;pressure;altitude;pressure_sealevel;temperature;humidity
18652;BME280;9455;54.302;10.124;2024-02-04T00:00:14;101519.13;;;6.42;100.00
18652;BME280;9455;54.302;10.124;2024-02-04T00:02:43;101520.44;;;6.35;100.00
18652;BME280;9455;54.302;10.124;2024-02-04T00:05:10;101494.19;;;6.31;100.00
18652;BME280;9455;54.302;10.124;2024-02-04T00:07:38;101497.50;;;6.34;100.00
18652;BME280;9455;54.302;10.124;2024-02-04T00:10:07;101482.47;;;6.35;100.00
18652;BME280;9455;54.302;10.124;2024-02-04T00:12:34;101490.75;;;6.44;100.00
18652;BME280;9455;54.302;10.124;2024-02-04T00:15:01;101489.22;;;6.40;100.00
18652;BME280;9455;54.302;10.124;2024-02-04T00:17:29;101488.38;;;6.40;100.00
18652;BME280;9455;54.302;10.124;2024-02-04T00:19:58;101494.59;;;6.39;100.00
18652;BME280;9455;54.302;10.124;2024-02-04T00:22:25;101483.84;;;6.42;100.00
18652;BME280;9455;54.302;10.124;2024-02-04T00:24:51;101481.75;;;6.33;100.00
18652;BME280;9455;54.302;10.124;2024-02-04T00:27:23;101487.97;;;6.32;100.00
18652;BME280;9455;54.302;10.124;2024-02-04T00:29:49;101477.91;;;6.23;100.00
18652;BME280;9455;54.302;10.124;2024-02-04T00:32:16;101462.69;;;6.26;100.00
18652;BME280;9455;54.302;10.124;2024-02-04T00:34:43;101453.22;;;6.22;100.00
18652;BME280;9455;54.302;10.124;2024-02-04T00:37:10;101450.81;;;6.18;100.00
18652;BME280;9455;54.302;10.124;2024-02-04T00:39:36;101455.72;;;6.10;100.00
18652;BME280;9455;54.302;10.124;2024-02-04T00:42:04;101459.91;;;6.14;100.00
18652;BME280;9455;54.302;10.124;2024-02-04T00:44:32;101467.91;;;6.12;100.00
18652;BME280;9455;54.302;10.124;2024-02-04T00:46:59;101464.63;;;6.09;100.00
18652;BME280;9455;54.302;10.124;2024-02-04T00:49:25;101465.34;;;6.11;100.00
18652;BME280;9455;54.302;10.124;2024-02-04T00:51:53;101471.34;;;6.14;100.00
18652;BME280;9455;54.302;10.124;2024-02-04T00:54:19;101465.28;;;6.12;100.00
18652;BME280;9455;54.302;10.124;2024-02-04T00:56:47;101463.41;;;6.14;100.00
18652;BME280;9455;54.302;10.124;2024-02-04T00:59:13;101463.41;;;6.14;100.00
18652;BME280;9455;54.302;10.124;2024-02-04T01:01:42;101454.69;;;6.12;100.00
18652;BME280;9455;54.302;10.124;2024-02-04T01:04:09;101444.19;;;6.11;100.00
18652;BME280;9455;54.302;10.124;2024-02-04T01:06:35;101443.34;;;6.10;100.00
18652;BME280;9455;54.302;10.124;2024-02-04T01:09:02;101441.28;;;6.15;100.00
18652;BME280;9455;54.302;10.124;2024-02-04T01:11:29;101439.50;;;6.16;100.00
18652;BME280;9455;54.302;10.124;2024-02-04T01:13:56;101434.84;;;6.19;100.00
18652;BME280;9455;54.302;10.124;2024-02-04T01:16:23;101439.28;;;6.19;100.00
18652;BME280;9455;54.302;10.124;2024-02-04T01:18:51;101441.00;;;6.20;100.00
18652;BME280;9455;54.302;10.124;2024-02-04T01:21:18;101438.00;;;6.26;100.00
18652;BME280;9455;54.302;10.124;2024-02-04T01:23:45;101447.47;;;6.30;100.00
18652;BME280;9455;54.302;10.124;2024-02-04T01:26:12;101440.84;;;6.23;100.00
18652;BME280;9455;54.302;10.124;2024-02-04T01:28:38;101443.09;;;6.29;100.00
18652;BME280;9455;54.302;10.124;2024-02-04T01:31:05;101430.81;;;6.28;100.00
18652;BME280;9455;54.302;10.124;2024-02-04T01:33:33;101430.72;;;6.29;100.00
18652;BME280;9455;54.302;10.124;2024-02-04T01:36:02;101427.41;;;6.26;100.00
18652;BME280;9455;54.302;10.124;2024-02-04T01:38:31;101430.72;;;6.29;100.00
18652;BME280;9455;54.302;10.124;2024-02-04T01:40:58;101426.84;;;6.35;100.00
18652;BME280;9455;54.302;10.124;2024-02-04T01:43:25;101423.09;;;6.39;100.00
18652;BME280;9455;54.302;10.124;2024-02-04T01:45:55;101432.16;;;6.35;100.00
18652;BME280;9455;54.302;10.124;2024-02-04T01:48:22;101426.00;;;6.34;100.00
18652;BME280;9455;54.302;10.124;2024-02-04T01:50:50;101428.47;;;6.37;100.00
18652;BME280;9455;54.302;10.124;2024-02-04T01:53:20;101410.53;;;6.42;100.00
18652;BME280;9455;54.302;10.124;2024-02-04T01:55:49;101414.69;;;6.46;100.00
18652;BME280;9455;54.302;10.124;2024-02-04T01:58:16;101411.09;;;6.47;100.00
18652;BME280;9455;54.302;10.124;2024-02-04T02:00:45;101414.41;;;6.51;100.00
18652;BME280;9455;54.302;10.124;2024-02-04T02:03:12;101412.34;;;6.56;100.00
18652;BME280;9455;54.302;10.124;2024-02-04T02:05:41;101415.75;;;6.58;100.00
18652;BME280;9455;54.302;10.124;2024-02-04T02:08:08;101407.31;;;6.65;100.00
18652;BME280;9455;54.302;10.124;2024-02-04T02:10:38;101419.06;;;6.75;100.00
18652;BME280;9455;54.302;10.124;2024-02-04T02:13:12;101414.34;;;6.66;100.00
18652;BME280;9455;54.302;10.124;2024-02-04T02:15:45;101411.88;;;6.63;100.00
18652;BME280;9455;54.302;10.124;2024-02-04T02:18:19;101413.31;;;6.69;100.00
18652;BME280;9455;54.302;10.124;2024-02-04T02:21:11;101417.94;;;6.79;100.00
18652;BME280;9455;54.302;10.124;2024-02-04T02:23:48;101403.00;;;6.78;100.00
18652;BME280;9455;54.302;10.124;2024-02-04T02:26:22;101400.06;;;6.83;100.00
18652;BME280;9455;54.302;10.124;2024-02-04T02:28:49;101389.56;;;6.81;100.00
18652;BME280;9455;54.302;10.124;2024-02-04T02:31:16;101394.59;;;6.86;100.00
18652;BME280;9455;54.302;10.124;2024-02-04T02:33:43;101397.97;;;6.88;100.00
18652;BME280;9455;54.302;10.124;2024-02-04T02:36:19;101375.75;;;6.90;100.00
18652;BME280;9455;54.302;10.124;2024-02-04T02:38:53;101393.81;;;6.98;100.00
18652;BME280;9455;54.302;10.124;2024-02-04T02:41:29;101399.13;;;6.98;100.00
18652;BME280;9455;54.302;10.124;2024-02-04T02:43:58;101372.78;;;6.95;100.00
18652;BME280;9455;54.302;10.124;2024-02-04T02:46:26;101362.84;;;6.98;100.00
18652;BME280;9455;54.302;10.124;2024-02-04T02:48:54;101364.66;;;6.98;100.00
18652;BME280;9455;54.302;10.124;2024-02-04T02:51:20;101370.34;;;6.92;100.00
18652;BME280;9455;54.302;10.124;2024-02-04T02:53:47;101363.91;;;6.96;100.00
18652;BME280;9455;54.302;10.124;2024-02-04T02:56:14;101368.34;;;6.95;100.00
18652;BME280;9455;54.302;10.124;2024-02-04T02:58:44;101363.03;;;6.95;100.00
18652;BME280;9455;54.302;10.124;2024-02-04T03:01:11;101360.31;;;6.97;100.00
18652;BME280;9455;54.302;10.124;2024-02-04T03:03:37;101376.03;;;7.00;100.00
18652;BME280;9455;54.302;10.124;2024-02-04T03:06:05;101352.06;;;7.01;100.00
18652;BME280;9455;54.302;10.124;2024-02-04T03:08:31;101356.50;;;7.01;100.00
18652;BME280;9455;54.302;10.124;2024-02-04T03:10:58;101351.19;;;7.01;100.00
18652;BME280;9455;54.302;10.124;2024-02-04T03:13:25;101342.69;;;7.10;100.00
18652;BME280;9455;54.302;10.124;2024-02-04T03:15:53;101341.28;;;7.04;100.00
18652;BME280;9455;54.302;10.124;2024-02-04T03:18:20;101324.69;;;7.01;100.00
18652;BME280;9455;54.302;10.124;2024-02-04T03:20:47;101335.47;;;6.98;100.00
18652;BME280;9455;54.302;10.124;2024-02-04T03:23:14;101332.28;;;6.93;100.00
18652;BME280;9455;54.302;10.124;2024-02-04T03:25:41;101329.25;;;6.99;100.00
18652;BME280;9455;54.302;10.124;2024-02-04T03:28:09;101321.50;;;6.96;100.00
18652;BME280;9455;54.302;10.124;2024-02-04T03:30:36;101329.34;;;6.97;100.00
18652;BME280;9455;54.302;10.124;2024-02-04T03:33:05;101329.34;;;6.97;100.00
18652;BME280;9455;54.302;10.124;2024-02-04T03:35:31;101338.91;;;7.00;100.00
18652;BME280;9455;54.302;10.124;2024-02-04T03:38:01;101312.56;;;6.97;100.00
18652;BME280;9455;54.302;10.124;2024-02-04T03:40:28;101319.38;;;7.01;100.00
18652;BME280;9455;54.302;10.124;2024-02-04T03:42:54;101329.81;;;7.04;100.00
18652;BME280;9455;54.302;10.124;2024-02-04T03:45:23;101312.19;;;7.03;100.00
18652;BME280;9455;54.302;10.124;2024-02-04T03:47:49;101319.38;;;7.01;100.00
18652;BME280;9455;54.302;10.124;2024-02-04T03:50:18;101323.28;;;6.95;100.00
18652;BME280;9455;54.302;10.124;2024-02-04T03:52:44;101306.81;;;7.04;100.00
18652;BME280;9455;54.302;10.124;2024-02-04T03:55:12;101308.03;;;6.99;100.00
18652;BME280;9455;54.302;10.124;2024-02-04T03:57:39;101296.38;;;7.01;100.00
18652;BME280;9455;54.302;10.124;2024-02-04T04:00:08;101294.97;;;6.96;100.00
18652;BME280;9455;54.302;10.124;2024-02-04T04:02:35;101284.38;;;6.96;100.00
18652;BME280;9455;54.302;10.124;2024-02-04T04:05:01;101289.25;;;7.02;100.00
18652;BME280;9455;54.302;10.124;2024-02-04T04:07:30;101299.22;;;6.98;100.00
18652;BME280;9455;54.302;10.124;2024-02-04T04:09:56;101296.66;;;6.97;100.00
18652;BME280;9455;54.302;10.124;2024-02-04T04:12:25;101285.09;;;6.98;100.00
18652;BME280;9455;54.302;10.124;2024-02-04T04:14:52;101282.47;;;6.98;100.00
18652;BME280;9455;54.302;10.124;2024-02-04T04:17:19;101289.56;;;6.97;100.00
18652;BME280;9455;54.302;10.124;2024-02-04T04:19:46;101279.06;;;6.96;100.00
18652;BME280;9455;54.302;10.124;2024-02-04T04:22:12;101272.72;;;6.98;100.00
18652;BME280;9455;54.302;10.124;2024-02-04T04:24:42;101282.06;;;7.04;100.00
18652;BME280;9455;54.302;10.124;2024-02-04T04:27:09;101277.16;;;6.98;100.00
18652;BME280;9455;54.302;10.124;2024-02-04T04:29:35;101268.47;;;6.96;100.00
18652;BME280;9455;54.302;10.124;2024-02-04T04:32:02;101266.44;;;6.99;100.00
18652;BME280;9455;54.302;10.124;2024-02-04T04:34:29;101278.22;;;6.95;100.00
18652;BME280;9455;54.302;10.124;2024-02-04T04:36:56;101281.16;;;6.91;100.00
18652;BME280;9455;54.302;10.124;2024-02-04T04:39:23;101275.47;;;6.97;100.00
18652;BME280;9455;54.302;10.124;2024-02-04T04:41:51;101276.59;;;6.93;100.00
18652;BME280;9455;54.302;10.124;2024-02-04T04:44:19;101268.84;;;6.90;100.00
18652;BME280;9455;54.302;10.124;2024-02-04T04:46:45;101279.25;;;6.93;100.00
18652;BME280;9455;54.302;10.124;2024-02-04T04:49:12;101275.28;;;7.00;100.00
18652;BME280;9455;54.302;10.124;2024-02-04T04:51:39;101281.16;;;6.91;100.00
18652;BME280;9455;54.302;10.124;2024-02-04T04:54:06;101268.66;;;6.93;100.00
18652;BME280;9455;54.302;10.124;2024-02-04T04:56:38;101274.41;;;6.99;100.00
18652;BME280;9455;54.302;10.124;2024-02-04T04:59:06;101269.38;;;6.95;100.00
18652;BME280;9455;54.302;10.124;2024-02-04T05:01:33;101257.44;;;7.02;100.00
18652;BME280;9455;54.302;10.124;2024-02-04T05:04:00;101256.13;;;6.95;100.00
18652;BME280;9455;54.302;10.124;2024-02-04T05:06:26;101270.94;;;6.85;100.00
18652;BME280;9455;54.302;10.124;2024-02-04T05:08:53;101269.03;;;6.87;100.00
18652;BME280;9455;54.302;10.124;2024-02-04T05:11:20;101254.63;;;6.91;100.00
18652;BME280;9455;54.302;10.124;2024-02-04T05:13:48;101264.22;;;6.93;100.00
18652;BME280;9455;54.302;10.124;2024-02-04T05:16:16;101261.66;;;6.92;100.00
18652;BME280;9455;54.302;10.124;2024-02-04T05:18:43;101280.59;;;6.86;100.00
18652;BME280;9455;54.302;10.124;2024-02-04T05:21:10;101260.13;;;6.88;100.00
18652;BME280;9455;54.302;10.124;2024-02-04T05:23:37;101249.53;;;6.88;100.00
18652;BME280;9455;54.302;10.124;2024-02-04T05:26:04;101251.59;;;6.97;100.00
18652;BME280;9455;54.302;10.124;2024-02-04T05:28:31;101231.34;;;6.96;100.00
18652;BME280;9455;54.302;10.124;2024-02-04T05:30:58;101234.72;;;6.98;100.00
18652;BME280;9455;54.302;10.124;2024-02-04T05:33:27;101231.34;;;6.96;100.00
18652;BME280;9455;54.302;10.124;2024-02-04T05:35:53;101241.84;;;6.97;100.00
18652;BME280;9455;54.302;10.124;2024-02-04T05:38:21;101241.28;;;6.92;100.00
18652;BME280;9455;54.302;10.124;2024-02-04T05:40:48;101226.25;;;6.93;100.00
18652;BME280;9455;54.302;10.124;2024-02-04T05:43:14;101220.94;;;6.93;100.00
18652;BME280;9455;54.302;10.124;2024-02-04T05:45:41;101223.88;;;6.88;100.00
18652;BME280;9455;54.302;10.124;2024-02-04T05:48:08;101228.13;;;6.91;100.00
18652;BME280;9455;54.302;10.124;2024-02-04T05:50:39;101238.72;;;6.91;100.00
18652;BME280;9455;54.302;10.124;2024-02-04T05:53:07;101229.28;;;6.87;100.00
18652;BME280;9455;54.302;10.124;2024-02-04T05:55:34;101225.47;;;6.91;100.00
18652;BME280;9455;54.302;10.124;2024-02-04T05:58:01;101229.63;;;6.95;100.00
18652;BME280;9455;54.302;10.124;2024-02-04T06:00:27;101217.13;;;6.97;100.00
18652;BME280;9455;54.302;10.124;2024-02-04T06:02:54;101205.94;;;7.06;100.00
18652;BME280;9455;54.302;10.124;2024-02-04T06:05:21;101236.22;;;7.02;100.00
18652;BME280;9455;54.302;10.124;2024-02-04T06:07:49;101228.59;;;6.97;100.00
18652;BME280;9455;54.302;10.124;2024-02-04T06:10:16;101227.75;;;6.97;100.00
18652;BME280;9455;54.302;10.124;2024-02-04T06:12:46;101218.81;;;6.98;100.00
18652;BME280;9455;54.302;10.124;2024-02-04T06:15:13;101209.84;;;7.00;100.00
18652;BME280;9455;54.302;10.124;2024-02-04T06:17:40;101214.56;;;6.95;100.00
18652;BME280;9455;54.302;10.124;2024-02-04T06:20:07;101191.00;;;6.91;100.00
18652;BME280;9455;54.302;10.124;2024-02-04T06:22:35;101199.06;;;6.89;100.00
18652;BME280;9455;54.302;10.124;2024-02-04T06:25:04;101185.91;;;6.88;100.00
18652;BME280;9455;54.302;10.124;2024-02-04T06:27:31;101190.91;;;6.92;100.00
18652;BME280;9455;54.302;10.124;2024-02-04T06:29:58;101172.06;;;6.97;100.00
18652;BME280;9455;54.302;10.124;2024-02-04T06:32:24;101178.91;;;6.87;100.00
18652;BME280;9455;54.302;10.124;2024-02-04T06:34:51;101191.22;;;6.88;100.00
18652;BME280;9455;54.302;10.124;2024-02-04T06:37:21;101170.00;;;6.88;100.00
18652;BME280;9455;54.302;10.124;2024-02-04T06:39:47;101171.06;;;6.85;100.00
18652;BME280;9455;54.302;10.124;2024-02-04T06:42:16;101179.78;;;6.87;100.00
18652;BME280;9455;54.302;10.124;2024-02-04T06:44:43;101176.97;;;6.76;100.00
18652;BME280;9455;54.302;10.124;2024-02-04T06:47:10;101170.63;;;6.79;100.00
18652;BME280;9455;54.302;10.124;2024-02-04T06:49:37;101168.69;;;6.81;100.00
18652;BME280;9455;54.302;10.124;2024-02-04T06:52:04;101174.22;;;6.78;100.00
18652;BME280;9455;54.302;10.124;2024-02-04T06:54:31;101171.91;;;6.86;100.00
18652;BME280;9455;54.302;10.124;2024-02-04T06:56:58;101176.25;;;6.87;100.00
18652;BME280;9455;54.302;10.124;2024-02-04T06:59:26;101189.91;;;6.81;100.00
18652;BME280;9455;54.302;10.124;2024-02-04T07:01:53;101178.56;;;6.79;100.00
18652;BME280;9455;54.302;10.124;2024-02-04T07:04:20;101175.53;;;6.85;100.00
18652;BME280;9455;54.302;10.124;2024-02-04T07:06:49;101168.31;;;6.87;100.00
18652;BME280;9455;54.302;10.124;2024-02-04T07:09:16;101179.09;;;6.84;100.00
18652;BME280;9455;54.302;10.124;2024-02-04T07:11:43;101152.59;;;6.84;100.00
18652;BME280;9455;54.302;10.124;2024-02-04T07:14:09;101155.81;;;6.89;100.00
18652;BME280;9455;54.302;10.124;2024-02-04T07:16:38;101153.91;;;6.91;100.00
18652;BME280;9455;54.302;10.124;2024-02-04T07:19:05;101149.66;;;6.88;100.00
18652;BME280;9455;54.302;10.124;2024-02-04T07:21:32;101167.00;;;6.80;100.00
18652;BME280;9455;54.302;10.124;2024-02-04T07:23:59;101164.84;;;6.86;100.00
18652;BME280;9455;54.302;10.124;2024-02-04T07:26:26;101147.19;;;6.85;100.00
18652;BME280;9455;54.302;10.124;2024-02-04T07:28:53;101152.00;;;6.93;100.00
18652;BME280;9455;54.302;10.124;2024-02-04T07:31:20;101164.25;;;6.81;100.00
18652;BME280;9455;54.302;10.124;2024-02-04T07:33:49;101169.38;;;6.84;100.00
18652;BME280;9455;54.302;10.124;2024-02-04T07:36:15;101167.34;;;6.88;100.00
18652;BME280;9455;54.302;10.124;2024-02-04T07:38:42;101164.06;;;6.84;100.00
18652;BME280;9455;54.302;10.124;2024-02-04T07:41:09;101160.03;;;6.79;100.00
18652;BME280;9455;54.302;10.124;2024-02-04T07:43:36;101166.28;;;6.78;100.00
18652;BME280;9455;54.302;10.124;2024-02-04T07:46:03;101163.19;;;6.84;100.00
18652;BME280;9455;54.302;10.124;2024-02-04T07:48:30;101164.69;;;6.88;100.00
18652;BME280;9455;54.302;10.124;2024-02-04T07:50:58;101153.47;;;6.84;100.00
18652;BME280;9455;54.302;10.124;2024-02-04T07:53:25;101147.09;;;6.87;100.00
18652;BME280;9455;54.302;10.124;2024-02-04T07:55:51;101156.75;;;6.88;100.00
18652;BME280;9455;54.302;10.124;2024-02-04T07:58:18;101160.25;;;6.88;100.00
18652;BME280;9455;54.302;10.124;2024-02-04T08:00:45;101169.81;;;6.91;100.00
18652;BME280;9455;54.302;10.124;2024-02-04T08:03:12;101154.09;;;6.88;100.00
18652;BME280;9455;54.302;10.124;2024-02-04T08:05:39;101162.22;;;6.99;100.00
18652;BME280;9455;54.302;10.124;2024-02-04T08:08:07;101138.84;;;6.91;100.00
18652;BME280;9455;54.302;10.124;2024-02-04T08:10:34;101136.09;;;6.93;100.00
18652;BME280;9455;54.302;10.124;2024-02-04T08:13:01;101144.19;;;7.04;100.00
18652;BME280;9455;54.302;10.124;2024-02-04T08:15:27;101152.53;;;6.98;100.00
18652;BME280;9455;54.302;10.124;2024-02-04T08:17:54;101138.91;;;7.04;100.00
18652;BME280;9455;54.302;10.124;2024-02-04T08:20:21;101151.63;;;6.99;100.00
18652;BME280;9455;54.302;10.124;2024-02-04T08:22:48;101156.91;;;6.99;100.00
18652;BME280;9455;54.302;10.124;2024-02-04T08:25:16;101158.81;;;6.97;100.00
18652;BME280;9455;54.302;10.124;2024-02-04T08:27:43;101140.59;;;7.05;100.00
18652;BME280;9455;54.302;10.124;2024-02-04T08:30:10;101150.47;;;7.03;100.00
18652;BME280;9455;54.302;10.124;2024-02-04T08:32:38;101138.50;;;7.10;100.00
18652;BME280;9455;54.302;10.124;2024-02-04T08:35:06;101147.41;;;7.09;100.00
18652;BME280;9455;54.302;10.124;2024-02-04T08:37:33;101138.09;;;7.16;100.00
18652;BME280;9455;54.302;10.124;2024-02-04T08:40:01;101142.22;;;7.20;100.00
18652;BME280;9455;54.302;10.124;2024-02-04T08:42:30;101131.53;;;7.21;100.00
18652;BME280;9455;54.302;10.124;2024-02-04T08:44:57;101119.84;;;7.24;100.00
18652;BME280;9455;54.302;10.124;2024-02-04T08:47:23;101130.25;;;7.14;100.00
18652;BME280;9455;54.302;10.124;2024-02-04T08:49:50;101111.69;;;7.14;100.00
18652;BME280;9455;54.302;10.124;2024-02-04T08:52:17;101110.06;;;7.24;100.00
18652;BME280;9455;54.302;10.124;2024-02-04T08:54:44;101107.66;;;7.21;100.00
18652;BME280;9455;54.302;10.124;2024-02-04T08:57:10;101114.34;;;7.27;100.00
18652;BME280;9455;54.302;10.124;2024-02-04T08:59:39;101108.84;;;7.30;100.00
18652;BME280;9455;54.302;10.124;2024-02-04T09:02:05;101108.84;;;7.30;100.00
18652;BME280;9455;54.302;10.124;2024-02-04T09:04:34;101105.53;;;7.26;100.00
18652;BME280;9455;54.302;10.124;2024-02-04T09:07:05;101118.88;;;7.25;100.00
18652;BME280;9455;54.302;10.124;2024-02-04T09:09:32;101093.13;;;7.27;100.00
18652;BME280;9455;54.302;10.124;2024-02-04T09:11:59;101098.13;;;7.31;100.00
18652;BME280;9455;54.302;10.124;2024-02-04T09:14:26;101112.41;;;7.29;100.00
18652;BME280;9455;54.302;10.124;2024-02-04T09:16:54;101132.91;;;7.27;100.00
18652;BME280;9455;54.302;10.124;2024-02-04T09:19:21;101106.19;;;7.30;100.00
18652;BME280;9455;54.302;10.124;2024-02-04T09:21:49;101105.00;;;7.34;100.00
18652;BME280;9455;54.302;10.124;2024-02-04T09:24:16;101095.88;;;7.38;100.00
18652;BME280;9455;54.302;10.124;2024-02-04T09:26:43;101097.38;;;7.42;100.00
18652;BME280;9455;54.302;10.124;2024-02-04T09:29:10;101101.91;;;7.40;100.00
18652;BME280;9455;54.302;10.124;2024-02-04T09:31:36;101105.53;;;7.39;100.00
18652;BME280;9455;54.302;10.124;2024-02-04T09:34:05;101105.66;;;7.50;100.00
18652;BME280;9455;54.302;10.124;2024-02-04T09:36:31;101097.38;;;7.42;100.00
18652;BME280;9455;54.302;10.124;2024-02-04T09:38:58;101101.91;;;7.40;100.00
18652;BME280;9455;54.302;10.124;2024-02-04T09:41:25;101079.88;;;7.52;100.00
18652;BME280;9455;54.302;10.124;2024-02-04T09:43:53;101097.78;;;7.48;100.00
18652;BME280;9455;54.302;10.124;2024-02-04T09:46:20;101095.47;;;7.44;100.00
18652;BME280;9455;54.302;10.124;2024-02-04T09:48:49;101105.44;;;7.40;100.00
18652;BME280;9455;54.302;10.124;2024-02-04T09:51:17;101098.53;;;7.38;100.00
18652;BME280;9455;54.302;10.124;2024-02-04T09:53:45;101098.03;;;7.45;100.00
18652;BME280;9455;54.302;10.124;2024-02-04T09:56:12;101106.59;;;7.36;100.00
18652;BME280;9455;54.302;10.124;2024-02-04T09:58:40;101095.69;;;7.41;100.00
18652;BME280;9455;54.302;10.124;2024-02-04T10:01:07;101103.84;;;7.38;100.00
18652;BME280;9455;54.302;10.124;2024-02-04T10:03:34;101095.69;;;7.41;100.00
18652;BME280;9455;54.302;10.124;2024-02-04T10:06:02;101109.47;;;7.46;100.00
18652;BME280;9455;54.302;10.124;2024-02-04T10:08:30;101100.78;;;7.56;100.00
18652;BME280;9455;54.302;10.124;2024-02-04T10:10:57;101113.41;;;7.53;100.00
18652;BME280;9455;54.302;10.124;2024-02-04T10:13:25;101102.47;;;7.45;100.00
18652;BME280;9455;54.302;10.124;2024-02-04T10:15:56;101100.03;;;7.42;100.00
18652;BME280;9455;54.302;10.124;2024-02-04T10:18:34;101090.91;;;7.46;100.00
18652;BME280;9455;54.302;10.124;2024-02-04T10:21:20;101097.47;;;7.53;100.00
18652;BME280;9455;54.302;10.124;2024-02-04T10:23:54;101098.44;;;7.52;100.00
18652;BME280;9455;54.302;10.124;2024-02-04T10:26:35;101096.75;;;7.51;100.00
18652;BME280;9455;54.302;10.124;2024-02-04T10:29:14;101092.16;;;7.53;100.00
18652;BME280;9455;54.302;10.124;2024-02-04T10:31:42;101083.59;;;7.49;100.00
18652;BME280;9455;54.302;10.124;2024-02-04T10:34:11;101075.19;;;7.55;100.00
18652;BME280;9455;54.302;10.124;2024-02-04T10:36:38;101074.56;;;7.52;100.00
18652;BME280;9455;54.302;10.124;2024-02-04T10:39:09;101070.41;;;7.60;100.00
18652;BME280;9455;54.302;10.124;2024-02-04T10:41:44;101067.66;;;7.62;100.00
18652;BME280;9455;54.302;10.124;2024-02-04T10:44:20;101077.63;;;7.71;100.00
18652;BME280;9455;54.302;10.124;2024-02-04T10:46:55;101087.19;;;7.73;100.00
18652;BME280;9455;54.302;10.124;2024-02-04T10:49:26;101059.78;;;7.73;100.00
18652;BME280;9455;54.302;10.124;2024-02-04T10:51:58;101084.44;;;7.75;100.00
18652;BME280;9455;54.302;10.124;2024-02-04T10:54:30;101072.75;;;7.65;100.00
18652;BME280;9455;54.302;10.124;2024-02-04T10:57:02;101066.28;;;7.69;100.00
18652;BME280;9455;54.302;10.124;2024-02-04T10:59:35;101067.84;;;7.84;100.00
18652;BME280;9455;54.302;10.124;2024-02-04T11:02:15;101070.38;;;7.85;100.00
18652;BME280;9455;54.302;10.124;2024-02-04T11:04:54;101065.72;;;7.89;100.00
18652;BME280;9455;54.302;10.124;2024-02-04T11:10:49;101066.38;;;7.80;100.00
18652;BME280;9455;54.302;10.124;2024-02-04T11:13:24;101062.44;;;7.85;100.00
18652;BME280;9455;54.302;10.124;2024-02-04T11:20:19;101059.97;;;7.82;100.00
18652;BME280;9455;54.302;10.124;2024-02-04T11:23:27;101054.25;;;7.88;100.00
18652;BME280;9455;54.302;10.124;2024-02-04T11:33:25;101046.28;;;7.88;100.00
18652;BME280;9455;54.302;10.124;2024-02-04T11:37:21;101045.88;;;7.82;100.00
18652;BME280;9455;54.302;10.124;2024-02-04T11:38:57;101045.13;;;7.80;100.00
18652;BME280;9455;54.302;10.124;2024-02-04T11:41:55;101061.06;;;7.80;100.00
18652;BME280;9455;54.302;10.124;2024-02-04T11:44:49;101049.38;;;7.82;100.00
18652;BME280;9455;54.302;10.124;2024-02-04T11:49:33;101052.13;;;7.81;100.00
18652;BME280;9455;54.302;10.124;2024-02-04T11:50:57;101044.50;;;7.89;100.00
18652;BME280;9455;54.302;10.124;2024-02-04T11:56:28;101044.50;;;7.89;100.00
18652;BME280;9455;54.302;10.124;2024-02-04T11:59:09;101079.22;;;7.86;100.00
18652;BME280;9455;54.302;10.124;2024-02-04T12:01:54;101058.69;;;7.88;100.00
18652;BME280;9455;54.302;10.124;2024-02-04T12:04:27;101054.56;;;7.84;100.00
18652;BME280;9455;54.302;10.124;2024-02-04T12:07:01;101065.94;;;7.86;100.00
18652;BME280;9455;54.302;10.124;2024-02-04T12:09:30;101053.50;;;7.99;100.00
18652;BME280;9455;54.302;10.124;2024-02-04T12:12:02;101056.78;;;7.90;100.00
18652;BME280;9455;54.302;10.124;2024-02-04T12:14:36;101063.41;;;7.84;100.00
18652;BME280;9455;54.302;10.124;2024-02-04T12:17:12;101045.53;;;7.86;100.00
18652;BME280;9455;54.302;10.124;2024-02-04T12:19:49;101034.81;;;7.88;100.00
18652;BME280;9455;54.302;10.124;2024-02-04T12:22:31;101046.94;;;7.92;100.00
18652;BME280;9455;54.302;10.124;2024-02-04T12:25:00;101059.44;;;7.90;100.00
18652;BME280;9455;54.302;10.124;2024-02-04T12:27:30;101059.25;;;7.93;100.00
18652;BME280;9455;54.302;10.124;2024-02-04T12:29:57;101064.84;;;8.01;100.00
18652;BME280;9455;54.302;10.124;2024-02-04T12:35:59;101070.81;;;7.92;100.00
18652;BME280;9455;54.302;10.124;2024-02-04T12:38:29;101053.59;;;7.85;100.00
18652;BME280;9455;54.302;10.124;2024-02-04T12:41:01;101055.63;;;7.94;100.00
18652;BME280;9455;54.302;10.124;2024-02-04T12:43:57;101041.03;;;7.99;100.00
18652;BME280;9455;54.302;10.124;2024-02-04T12:47:25;101032.25;;;7.99;100.00
18652;BME280;9455;54.302;10.124;2024-02-04T12:50:15;101082.06;;;7.95;100.00
18652;BME280;9455;54.302;10.124;2024-02-04T12:53:03;101033.66;;;7.92;100.00
18652;BME280;9455;54.302;10.124;2024-02-04T12:55:39;101037.47;;;7.88;100.00
18652;BME280;9455;54.302;10.124;2024-02-04T12:58:12;101027.25;;;7.94;100.00
18652;BME280;9455;54.302;10.124;2024-02-04T13:00:45;101042.78;;;7.88;100.00
18652;BME280;9455;54.302;10.124;2024-02-04T13:03:15;101027.06;;;7.85;100.00
18652;BME280;9455;54.302;10.124;2024-02-04T13:05:46;101036.59;;;8.00;100.00
18652;BME280;9455;54.302;10.124;2024-02-04T13:08:51;101035.44;;;7.91;100.00
18652;BME280;9455;54.302;10.124;2024-02-04T13:11:35;101027.47;;;7.91;100.00
18652;BME280;9455;54.302;10.124;2024-02-04T13:14:02;101043.31;;;7.93;100.00
18652;BME280;9455;54.302;10.124;2024-02-04T13:16:29;101032.47;;;7.96;100.00
18652;BME280;9455;54.302;10.124;2024-02-04T13:18:57;101052.25;;;7.92;100.00
18652;BME280;9455;54.302;10.124;2024-02-04T13:21:23;101031.94;;;7.91;100.00
18652;BME280;9455;54.302;10.124;2024-02-04T13:23:50;101036.38;;;8.03;100.00